sensor_id;sensor_type;location;lat;lon;timestamp;P1;durP1;ratioP1;P2;durP2;ratioP2
65581;SDS011;52231;40.090;18.348;2022-12-18T00:00:24;39.47;;;24.45;;
65581;SDS011;52231;40.090;18.348;2022-12-18T00:02:52;36.45;;;22.52;;
65581;SDS011;52231;40.090;18.348;2022-12-18T00:05:21;44.60;;;25.13;;
65581;SDS011;52231;40.090;18.348;2022-12-18T00:07:49;42.03;;;25.65;;
65581;SDS011;52231;40.090;18.348;2022-12-18T00:10:17;39.83;;;24.63;;
65581;SDS011;52231;40.090;18.348;2022-12-18T00:12:45;38.65;;;23.58;;
65581;SDS011;52231;40.090;18.348;2022-12-18T00:15:13;38.50;;;22.80;;
65581;SDS011;52231;40.090;18.348;2022-12-18T00:17:42;38.28;;;22.48;;
65581;SDS011;52231;40.090;18.348;2022-12-18T00:20:10;37.00;;;22.45;;
65581;SDS011;52231;40.090;18.348;2022-12-18T00:42:57;39.55;;;23.63;;
65581;SDS011;52231;40.090;18.348;2022-12-18T00:45:27;43.88;;;25.98;;
65581;SDS011;52231;40.090;18.348;2022-12-18T00:47:57;40.38;;;25.08;;
65581;SDS011;52231;40.090;18.348;2022-12-18T00:50:26;43.92;;;27.25;;
65581;SDS011;52231;40.090;18.348;2022-12-18T00:55:47;40.30;;;23.40;;
65581;SDS011;52231;40.090;18.348;2022-12-18T00:58:17;43.85;;;25.75;;
65581;SDS011;52231;40.090;18.348;2022-12-18T01:00:46;37.55;;;25.92;;
65581;SDS011;52231;40.090;18.348;2022-12-18T01:03:14;46.28;;;27.95;;
65581;SDS011;52231;40.090;18.348;2022-12-18T01:08:11;39.80;;;25.67;;
65581;SDS011;52231;40.090;18.348;2022-12-18T01:10:43;43.92;;;26.42;;
65581;SDS011;52231;40.090;18.348;2022-12-18T01:13:12;43.70;;;26.25;;
65581;SDS011;52231;40.090;18.348;2022-12-18T01:15:40;45.28;;;27.25;;
65581;SDS011;52231;40.090;18.348;2022-12-18T01:18:15;49.03;;;28.15;;
65581;SDS011;52231;40.090;18.348;2022-12-18T01:20:44;40.28;;;25.25;;
65581;SDS011;52231;40.090;18.348;2022-12-18T01:23:12;42.20;;;24.75;;
65581;SDS011;52231;40.090;18.348;2022-12-18T01:25:40;38.70;;;23.88;;
65581;SDS011;52231;40.090;18.348;2022-12-18T01:28:09;38.10;;;24.58;;
65581;SDS011;52231;40.090;18.348;2022-12-18T01:30:38;43.85;;;26.10;;
65581;SDS011;52231;40.090;18.348;2022-12-18T01:33:06;39.50;;;24.88;;
65581;SDS011;52231;40.090;18.348;2022-12-18T01:38:07;41.00;;;23.45;;
65581;SDS011;52231;40.090;18.348;2022-12-18T01:40:36;41.20;;;24.77;;
65581;SDS011;52231;40.090;18.348;2022-12-18T01:43:04;37.97;;;23.52;;
65581;SDS011;52231;40.090;18.348;2022-12-18T01:45:33;40.33;;;23.70;;
65581;SDS011;52231;40.090;18.348;2022-12-18T01:48:03;37.55;;;22.80;;
65581;SDS011;52231;40.090;18.348;2022-12-18T01:50:35;38.83;;;23.35;;
65581;SDS011;52231;40.090;18.348;2022-12-18T01:53:24;36.22;;;21.90;;
65581;SDS011;52231;40.090;18.348;2022-12-18T01:55:54;35.10;;;21.75;;
65581;SDS011;52231;40.090;18.348;2022-12-18T01:58:27;34.45;;;21.08;;
65581;SDS011;52231;40.090;18.348;2022-12-18T02:01:01;35.97;;;21.48;;
65581;SDS011;52231;40.090;18.348;2022-12-18T02:03:32;32.47;;;20.45;;
65581;SDS011;52231;40.090;18.348;2022-12-18T02:13:57;38.42;;;25.40;;
65581;SDS011;52231;40.090;18.348;2022-12-18T02:25:14;37.88;;;24.10;;
65581;SDS011;52231;40.090;18.348;2022-12-18T02:27:54;36.92;;;23.08;;
65581;SDS011;52231;40.090;18.348;2022-12-18T02:30:28;39.20;;;23.65;;
65581;SDS011;52231;40.090;18.348;2022-12-18T02:33:02;38.25;;;23.70;;
65581;SDS011;52231;40.090;18.348;2022-12-18T02:35:34;38.20;;;24.67;;
65581;SDS011;52231;40.090;18.348;2022-12-18T02:38:04;37.13;;;23.67;;
65581;SDS011;52231;40.090;18.348;2022-12-18T02:40:35;38.42;;;23.58;;
65581;SDS011;52231;40.090;18.348;2022-12-18T02:43:09;35.95;;;22.88;;
65581;SDS011;52231;40.090;18.348;2022-12-18T02:45:47;32.13;;;20.52;;
65581;SDS011;52231;40.090;18.348;2022-12-18T02:48:21;29.65;;;19.08;;
65581;SDS011;52231;40.090;18.348;2022-12-18T02:56:51;33.63;;;20.70;;
65581;SDS011;52231;40.090;18.348;2022-12-18T02:59:29;34.80;;;20.60;;
65581;SDS011;52231;40.090;18.348;2022-12-18T03:02:20;35.50;;;20.92;;
65581;SDS011;52231;40.090;18.348;2022-12-18T03:07:39;33.80;;;21.40;;
65581;SDS011;52231;40.090;18.348;2022-12-18T03:10:16;33.47;;;21.10;;
65581;SDS011;52231;40.090;18.348;2022-12-18T03:15:22;36.55;;;20.95;;
65581;SDS011;52231;40.090;18.348;2022-12-18T03:18:13;35.63;;;20.27;;
65581;SDS011;52231;40.090;18.348;2022-12-18T03:21:02;34.13;;;21.10;;
65581;SDS011;52231;40.090;18.348;2022-12-18T03:23:46;33.78;;;21.48;;
65581;SDS011;52231;40.090;18.348;2022-12-18T03:26:19;32.92;;;21.02;;
65581;SDS011;52231;40.090;18.348;2022-12-18T03:28:56;31.63;;;19.63;;
65581;SDS011;52231;40.090;18.348;2022-12-18T03:31:31;32.53;;;20.30;;
65581;SDS011;52231;40.090;18.348;2022-12-18T03:34:12;32.20;;;19.60;;
65581;SDS011;52231;40.090;18.348;2022-12-18T03:36:49;32.33;;;19.48;;
65581;SDS011;52231;40.090;18.348;2022-12-18T03:39:18;30.27;;;19.90;;
65581;SDS011;52231;40.090;18.348;2022-12-18T03:45:38;30.13;;;17.67;;
65581;SDS011;52231;40.090;18.348;2022-12-18T03:53:33;32.28;;;17.48;;
65581;SDS011;52231;40.090;18.348;2022-12-18T03:56:15;31.92;;;18.02;;
65581;SDS011;52231;40.090;18.348;2022-12-18T03:58:47;30.25;;;17.65;;
65581;SDS011;52231;40.090;18.348;2022-12-18T04:01:22;27.25;;;16.30;;
65581;SDS011;52231;40.090;18.348;2022-12-18T04:04:00;26.95;;;16.90;;
65581;SDS011;52231;40.090;18.348;2022-12-18T04:06:33;32.58;;;18.77;;
65581;SDS011;52231;40.090;18.348;2022-12-18T04:09:02;26.33;;;16.73;;
65581;SDS011;52231;40.090;18.348;2022-12-18T04:11:51;29.10;;;16.48;;
65581;SDS011;52231;40.090;18.348;2022-12-18T04:14:19;28.63;;;17.55;;
65581;SDS011;52231;40.090;18.348;2022-12-18T04:16:52;26.77;;;17.80;;
65581;SDS011;52231;40.090;18.348;2022-12-18T04:19:26;28.90;;;18.13;;
65581;SDS011;52231;40.090;18.348;2022-12-18T04:24:46;24.95;;;14.85;;
65581;SDS011;52231;40.090;18.348;2022-12-18T04:27:23;29.05;;;15.82;;
65581;SDS011;52231;40.090;18.348;2022-12-18T04:29:51;28.75;;;16.55;;
65581;SDS011;52231;40.090;18.348;2022-12-18T04:32:20;31.48;;;16.70;;
65581;SDS011;52231;40.090;18.348;2022-12-18T04:34:49;27.58;;;16.23;;
65581;SDS011;52231;40.090;18.348;2022-12-18T04:37:17;26.58;;;16.48;;
65581;SDS011;52231;40.090;18.348;2022-12-18T04:39:48;27.73;;;15.98;;
65581;SDS011;52231;40.090;18.348;2022-12-18T04:42:24;26.58;;;16.98;;
65581;SDS011;52231;40.090;18.348;2022-12-18T04:44:52;28.10;;;15.50;;
65581;SDS011;52231;40.090;18.348;2022-12-18T04:47:20;27.08;;;16.13;;
65581;SDS011;52231;40.090;18.348;2022-12-18T04:49:48;26.50;;;15.00;;
65581;SDS011;52231;40.090;18.348;2022-12-18T04:52:16;26.25;;;15.55;;
65581;SDS011;52231;40.090;18.348;2022-12-18T04:54:45;25.95;;;15.48;;
65581;SDS011;52231;40.090;18.348;2022-12-18T04:57:13;25.48;;;15.38;;
65581;SDS011;52231;40.090;18.348;2022-12-18T04:59:41;27.70;;;14.32;;
65581;SDS011;52231;40.090;18.348;2022-12-18T05:02:10;26.92;;;14.80;;
65581;SDS011;52231;40.090;18.348;2022-12-18T05:04:38;27.38;;;14.73;;
65581;SDS011;52231;40.090;18.348;2022-12-18T05:07:07;24.63;;;14.23;;
65581;SDS011;52231;40.090;18.348;2022-12-18T05:09:35;25.75;;;14.35;;
65581;SDS011;52231;40.090;18.348;2022-12-18T05:12:03;22.00;;;13.93;;
65581;SDS011;52231;40.090;18.348;2022-12-18T05:14:32;24.70;;;13.82;;
65581;SDS011;52231;40.090;18.348;2022-12-18T05:17:00;21.60;;;12.75;;
65581;SDS011;52231;40.090;18.348;2022-12-18T05:19:28;26.08;;;14.18;;
65581;SDS011;52231;40.090;18.348;2022-12-18T05:21:56;21.50;;;12.65;;
65581;SDS011;52231;40.090;18.348;2022-12-18T05:24:25;22.92;;;11.68;;
65581;SDS011;52231;40.090;18.348;2022-12-18T05:26:53;21.90;;;11.90;;
65581;SDS011;52231;40.090;18.348;2022-12-18T05:29:21;21.90;;;10.77;;
65581;SDS011;52231;40.090;18.348;2022-12-18T05:31:49;18.50;;;10.15;;
65581;SDS011;52231;40.090;18.348;2022-12-18T05:36:46;16.35;;;8.27;;
65581;SDS011;52231;40.090;18.348;2022-12-18T05:39:14;18.25;;;9.32;;
65581;SDS011;52231;40.090;18.348;2022-12-18T05:41:42;20.73;;;9.13;;
65581;SDS011;52231;40.090;18.348;2022-12-18T05:44:11;17.58;;;9.38;;
65581;SDS011;52231;40.090;18.348;2022-12-18T05:46:39;18.80;;;9.93;;
65581;SDS011;52231;40.090;18.348;2022-12-18T05:49:07;17.73;;;8.68;;
65581;SDS011;52231;40.090;18.348;2022-12-18T05:51:35;18.40;;;9.13;;
65581;SDS011;52231;40.090;18.348;2022-12-18T05:54:03;20.52;;;9.60;;
65581;SDS011;52231;40.090;18.348;2022-12-18T05:56:31;20.98;;;10.00;;
65581;SDS011;52231;40.090;18.348;2022-12-18T05:58:59;26.25;;;13.93;;
65581;SDS011;52231;40.090;18.348;2022-12-18T06:01:27;24.98;;;12.52;;
65581;SDS011;52231;40.090;18.348;2022-12-18T06:03:56;19.75;;;10.57;;
65581;SDS011;52231;40.090;18.348;2022-12-18T06:06:25;18.75;;;8.55;;
65581;SDS011;52231;40.090;18.348;2022-12-18T06:08:55;19.05;;;8.88;;
65581;SDS011;52231;40.090;18.348;2022-12-18T06:11:24;19.08;;;8.63;;
65581;SDS011;52231;40.090;18.348;2022-12-18T06:13:54;17.17;;;8.30;;
65581;SDS011;52231;40.090;18.348;2022-12-18T06:16:25;16.40;;;8.57;;
65581;SDS011;52231;40.090;18.348;2022-12-18T06:18:57;17.77;;;9.80;;
65581;SDS011;52231;40.090;18.348;2022-12-18T06:21:27;22.85;;;12.00;;
65581;SDS011;52231;40.090;18.348;2022-12-18T06:23:55;19.45;;;9.13;;
65581;SDS011;52231;40.090;18.348;2022-12-18T06:26:24;18.08;;;8.98;;
65581;SDS011;52231;40.090;18.348;2022-12-18T06:28:54;16.90;;;8.50;;
65581;SDS011;52231;40.090;18.348;2022-12-18T06:31:22;18.23;;;8.45;;
65581;SDS011;52231;40.090;18.348;2022-12-18T06:33:53;18.83;;;9.30;;
65581;SDS011;52231;40.090;18.348;2022-12-18T06:36:22;18.08;;;8.25;;
65581;SDS011;52231;40.090;18.348;2022-12-18T06:38:50;18.27;;;8.65;;
65581;SDS011;52231;40.090;18.348;2022-12-18T06:41:19;17.60;;;8.50;;
65581;SDS011;52231;40.090;18.348;2022-12-18T06:43:48;19.35;;;9.25;;
65581;SDS011;52231;40.090;18.348;2022-12-18T06:46:17;22.25;;;9.18;;
65581;SDS011;52231;40.090;18.348;2022-12-18T06:48:49;18.70;;;9.88;;
65581;SDS011;52231;40.090;18.348;2022-12-18T06:51:18;20.67;;;9.93;;
65581;SDS011;52231;40.090;18.348;2022-12-18T06:53:48;22.80;;;10.85;;
65581;SDS011;52231;40.090;18.348;2022-12-18T06:56:17;22.55;;;10.63;;
65581;SDS011;52231;40.090;18.348;2022-12-18T06:58:45;21.90;;;9.90;;
65581;SDS011;52231;40.090;18.348;2022-12-18T07:01:13;21.88;;;9.43;;
65581;SDS011;52231;40.090;18.348;2022-12-18T07:03:41;22.00;;;9.98;;
65581;SDS011;52231;40.090;18.348;2022-12-18T07:08:42;19.63;;;9.18;;
65581;SDS011;52231;40.090;18.348;2022-12-18T07:13:39;16.45;;;8.20;;
65581;SDS011;52231;40.090;18.348;2022-12-18T07:16:09;20.77;;;8.05;;
65581;SDS011;52231;40.090;18.348;2022-12-18T07:18:42;17.13;;;7.47;;
65581;SDS011;52231;40.090;18.348;2022-12-18T07:21:12;19.48;;;7.50;;
65581;SDS011;52231;40.090;18.348;2022-12-18T07:23:45;14.90;;;7.40;;
65581;SDS011;52231;40.090;18.348;2022-12-18T07:26:16;17.63;;;8.02;;
65581;SDS011;52231;40.090;18.348;2022-12-18T07:28:46;18.27;;;7.40;;
65581;SDS011;52231;40.090;18.348;2022-12-18T07:31:17;19.45;;;7.47;;
65581;SDS011;52231;40.090;18.348;2022-12-18T07:33:47;17.40;;;7.35;;
65581;SDS011;52231;40.090;18.348;2022-12-18T07:36:16;16.65;;;7.35;;
65581;SDS011;52231;40.090;18.348;2022-12-18T07:38:48;16.77;;;6.88;;
65581;SDS011;52231;40.090;18.348;2022-12-18T07:41:18;18.20;;;6.95;;
65581;SDS011;52231;40.090;18.348;2022-12-18T07:43:46;15.60;;;6.65;;
65581;SDS011;52231;40.090;18.348;2022-12-18T07:46:15;15.13;;;7.03;;
65581;SDS011;52231;40.090;18.348;2022-12-18T07:48:44;16.05;;;6.78;;
65581;SDS011;52231;40.090;18.348;2022-12-18T07:51:12;16.35;;;6.50;;
65581;SDS011;52231;40.090;18.348;2022-12-18T07:53:40;21.00;;;7.28;;
65581;SDS011;52231;40.090;18.348;2022-12-18T07:56:12;16.88;;;7.38;;
65581;SDS011;52231;40.090;18.348;2022-12-18T07:58:57;15.05;;;6.70;;
65581;SDS011;52231;40.090;18.348;2022-12-18T08:01:29;15.00;;;6.68;;
65581;SDS011;52231;40.090;18.348;2022-12-18T08:03:57;17.33;;;6.80;;
65581;SDS011;52231;40.090;18.348;2022-12-18T08:06:26;16.35;;;6.05;;
65581;SDS011;52231;40.090;18.348;2022-12-18T08:08:55;16.88;;;6.47;;
65581;SDS011;52231;40.090;18.348;2022-12-18T08:11:24;14.70;;;6.10;;
65581;SDS011;52231;40.090;18.348;2022-12-18T08:13:54;17.17;;;6.53;;
65581;SDS011;52231;40.090;18.348;2022-12-18T08:16:23;15.98;;;6.03;;
65581;SDS011;52231;40.090;18.348;2022-12-18T08:21:21;13.93;;;6.07;;
65581;SDS011;52231;40.090;18.348;2022-12-18T08:23:55;14.82;;;5.90;;
65581;SDS011;52231;40.090;18.348;2022-12-18T08:26:26;16.33;;;5.90;;
65581;SDS011;52231;40.090;18.348;2022-12-18T08:28:57;14.45;;;5.38;;
65581;SDS011;52231;40.090;18.348;2022-12-18T08:31:27;10.02;;;4.57;;
65581;SDS011;52231;40.090;18.348;2022-12-18T08:33:57;15.50;;;4.80;;
65581;SDS011;52231;40.090;18.348;2022-12-18T08:36:25;15.18;;;4.90;;
65581;SDS011;52231;40.090;18.348;2022-12-18T08:38:53;16.02;;;4.95;;
65581;SDS011;52231;40.090;18.348;2022-12-18T08:41:22;13.32;;;4.88;;
65581;SDS011;52231;40.090;18.348;2022-12-18T08:46:38;14.77;;;4.60;;
65581;SDS011;52231;40.090;18.348;2022-12-18T08:49:08;15.30;;;4.78;;
65581;SDS011;52231;40.090;18.348;2022-12-18T08:51:38;15.27;;;4.75;;
65581;SDS011;52231;40.090;18.348;2022-12-18T08:54:09;14.18;;;4.60;;
65581;SDS011;52231;40.090;18.348;2022-12-18T08:56:39;15.25;;;4.88;;
65581;SDS011;52231;40.090;18.348;2022-12-18T08:59:08;12.70;;;4.68;;
65581;SDS011;52231;40.090;18.348;2022-12-18T09:01:38;17.70;;;5.03;;
65581;SDS011;52231;40.090;18.348;2022-12-18T09:06:35;13.07;;;4.30;;
65581;SDS011;52231;40.090;18.348;2022-12-18T09:09:04;13.07;;;4.20;;
65581;SDS011;52231;40.090;18.348;2022-12-18T09:11:33;12.30;;;4.00;;
65581;SDS011;52231;40.090;18.348;2022-12-18T09:14:01;12.23;;;3.75;;
65581;SDS011;52231;40.090;18.348;2022-12-18T09:16:30;10.52;;;3.65;;
65581;SDS011;52231;40.090;18.348;2022-12-18T09:19:00;15.63;;;4.88;;
65581;SDS011;52231;40.090;18.348;2022-12-18T09:21:30;11.20;;;3.58;;
65581;SDS011;52231;40.090;18.348;2022-12-18T09:24:04;11.98;;;3.67;;
65581;SDS011;52231;40.090;18.348;2022-12-18T09:26:33;11.27;;;3.65;;
65581;SDS011;52231;40.090;18.348;2022-12-18T09:29:04;14.35;;;3.20;;
65581;SDS011;52231;40.090;18.348;2022-12-18T09:31:34;13.65;;;3.47;;
65581;SDS011;52231;40.090;18.348;2022-12-18T09:34:03;10.82;;;3.33;;
65581;SDS011;52231;40.090;18.348;2022-12-18T09:36:31;13.73;;;3.50;;
65581;SDS011;52231;40.090;18.348;2022-12-18T09:39:01;9.63;;;3.05;;
65581;SDS011;52231;40.090;18.348;2022-12-18T09:46:58;13.68;;;3.25;;
65581;SDS011;52231;40.090;18.348;2022-12-18T09:49:43;13.77;;;3.25;;
65581;SDS011;52231;40.090;18.348;2022-12-18T09:54:49;11.20;;;3.35;;
65581;SDS011;52231;40.090;18.348;2022-12-18T09:57:47;9.00;;;2.50;;
65581;SDS011;52231;40.090;18.348;2022-12-18T10:00:22;10.18;;;2.80;;
65581;SDS011;52231;40.090;18.348;2022-12-18T10:02:53;12.98;;;2.60;;
65581;SDS011;52231;40.090;18.348;2022-12-18T10:05:53;10.40;;;2.72;;
65581;SDS011;52231;40.090;18.348;2022-12-18T10:16:36;12.05;;;2.70;;
65581;SDS011;52231;40.090;18.348;2022-12-18T10:21:52;12.85;;;2.75;;
65581;SDS011;52231;40.090;18.348;2022-12-18T10:27:07;14.38;;;2.63;;
65581;SDS011;52231;40.090;18.348;2022-12-18T10:29:48;8.30;;;2.70;;
65581;SDS011;52231;40.090;18.348;2022-12-18T10:32:21;8.77;;;2.97;;
65581;SDS011;52231;40.090;18.348;2022-12-18T10:34:51;9.88;;;2.45;;
65581;SDS011;52231;40.090;18.348;2022-12-18T10:37:27;9.18;;;2.63;;
65581;SDS011;52231;40.090;18.348;2022-12-18T10:40:10;8.02;;;2.20;;
65581;SDS011;52231;40.090;18.348;2022-12-18T10:42:44;10.20;;;2.00;;
65581;SDS011;52231;40.090;18.348;2022-12-18T10:47:43;9.90;;;2.75;;
65581;SDS011;52231;40.090;18.348;2022-12-18T10:50:24;6.90;;;2.45;;
65581;SDS011;52231;40.090;18.348;2022-12-18T10:53:26;5.13;;;1.58;;
65581;SDS011;52231;40.090;18.348;2022-12-18T10:55:58;5.18;;;1.88;;
65581;SDS011;52231;40.090;18.348;2022-12-18T10:58:28;8.82;;;2.05;;
65581;SDS011;52231;40.090;18.348;2022-12-18T11:01:08;9.32;;;1.60;;
65581;SDS011;52231;40.090;18.348;2022-12-18T11:03:41;9.70;;;2.30;;
65581;SDS011;52231;40.090;18.348;2022-12-18T11:06:28;9.57;;;2.53;;
65581;SDS011;52231;40.090;18.348;2022-12-18T11:09:00;10.38;;;2.40;;
65581;SDS011;52231;40.090;18.348;2022-12-18T11:11:37;10.23;;;3.22;;
65581;SDS011;52231;40.090;18.348;2022-12-18T11:14:06;11.35;;;3.72;;
65581;SDS011;52231;40.090;18.348;2022-12-18T11:16:48;13.10;;;4.75;;
65581;SDS011;52231;40.090;18.348;2022-12-18T11:19:57;8.27;;;2.75;;
65581;SDS011;52231;40.090;18.348;2022-12-18T11:22:28;7.13;;;2.00;;
65581;SDS011;52231;40.090;18.348;2022-12-18T11:25:05;7.30;;;1.65;;
65581;SDS011;52231;40.090;18.348;2022-12-18T11:27:55;8.82;;;2.00;;
65581;SDS011;52231;40.090;18.348;2022-12-18T11:33:06;7.35;;;1.98;;
65581;SDS011;52231;40.090;18.348;2022-12-18T11:35:42;7.95;;;1.70;;
65581;SDS011;52231;40.090;18.348;2022-12-18T11:38:37;4.13;;;1.40;;
65581;SDS011;52231;40.090;18.348;2022-12-18T11:41:15;10.35;;;2.10;;
65581;SDS011;52231;40.090;18.348;2022-12-18T11:43:58;5.63;;;1.50;;
65581;SDS011;52231;40.090;18.348;2022-12-18T11:46:34;7.95;;;1.80;;
65581;SDS011;52231;40.090;18.348;2022-12-18T11:49:10;6.25;;;2.20;;
65581;SDS011;52231;40.090;18.348;2022-12-18T11:51:45;7.47;;;1.98;;
65581;SDS011;52231;40.090;18.348;2022-12-18T11:54:16;6.80;;;1.83;;
65581;SDS011;52231;40.090;18.348;2022-12-18T11:56:48;8.45;;;1.60;;
65581;SDS011;52231;40.090;18.348;2022-12-18T12:07:47;5.10;;;1.45;;
65581;SDS011;52231;40.090;18.348;2022-12-18T12:10:46;5.82;;;1.88;;
65581;SDS011;52231;40.090;18.348;2022-12-18T12:19:38;9.30;;;2.72;;
65581;SDS011;52231;40.090;18.348;2022-12-18T12:39:08;7.00;;;2.40;;
65581;SDS011;52231;40.090;18.348;2022-12-18T12:41:41;5.55;;;2.00;;
65581;SDS011;52231;40.090;18.348;2022-12-18T12:44:32;6.13;;;1.77;;
65581;SDS011;52231;40.090;18.348;2022-12-18T12:47:16;5.18;;;1.90;;
65581;SDS011;52231;40.090;18.348;2022-12-18T12:49:48;7.55;;;1.80;;
65581;SDS011;52231;40.090;18.348;2022-12-18T12:52:21;8.02;;;2.25;;
65581;SDS011;52231;40.090;18.348;2022-12-18T12:54:57;6.55;;;1.90;;
65581;SDS011;52231;40.090;18.348;2022-12-18T12:57:34;5.38;;;1.98;;
65581;SDS011;52231;40.090;18.348;2022-12-18T13:00:24;5.80;;;2.08;;
65581;SDS011;52231;40.090;18.348;2022-12-18T13:08:26;10.85;;;2.00;;
65581;SDS011;52231;40.090;18.348;2022-12-18T13:10:59;8.30;;;2.50;;
65581;SDS011;52231;40.090;18.348;2022-12-18T13:13:53;9.02;;;3.10;;
65581;SDS011;52231;40.090;18.348;2022-12-18T13:16:24;8.55;;;2.30;;
65581;SDS011;52231;40.090;18.348;2022-12-18T13:18:57;10.50;;;4.97;;
65581;SDS011;52231;40.090;18.348;2022-12-18T13:21:27;9.88;;;2.40;;
65581;SDS011;52231;40.090;18.348;2022-12-18T13:26:52;6.78;;;2.28;;
65581;SDS011;52231;40.090;18.348;2022-12-18T13:32:25;8.38;;;2.00;;
65581;SDS011;52231;40.090;18.348;2022-12-18T13:37:52;9.80;;;2.15;;
65581;SDS011;52231;40.090;18.348;2022-12-18T13:43:28;5.70;;;2.08;;
65581;SDS011;52231;40.090;18.348;2022-12-18T13:48:27;12.75;;;3.50;;
65581;SDS011;52231;40.090;18.348;2022-12-18T13:54:13;11.10;;;2.88;;
65581;SDS011;52231;40.090;18.348;2022-12-18T13:56:23;8.57;;;2.63;;
65581;SDS011;52231;40.090;18.348;2022-12-18T13:59:06;9.20;;;3.22;;
65581;SDS011;52231;40.090;18.348;2022-12-18T14:01:46;16.15;;;6.28;;
65581;SDS011;52231;40.090;18.348;2022-12-18T14:09:51;12.77;;;5.75;;
65581;SDS011;52231;40.090;18.348;2022-12-18T14:12:28;17.23;;;6.28;;
65581;SDS011;52231;40.090;18.348;2022-12-18T14:20:50;13.15;;;3.80;;
65581;SDS011;52231;40.090;18.348;2022-12-18T14:26:23;9.45;;;2.67;;
65581;SDS011;52231;40.090;18.348;2022-12-18T14:29:00;10.98;;;3.10;;
65581;SDS011;52231;40.090;18.348;2022-12-18T14:34:51;11.32;;;2.67;;
65581;SDS011;52231;40.090;18.348;2022-12-18T14:37:25;11.68;;;2.90;;
65581;SDS011;52231;40.090;18.348;2022-12-18T14:39:58;10.88;;;2.70;;
65581;SDS011;52231;40.090;18.348;2022-12-18T14:42:36;9.80;;;3.20;;
65581;SDS011;52231;40.090;18.348;2022-12-18T14:48:07;15.43;;;4.10;;
65581;SDS011;52231;40.090;18.348;2022-12-18T14:50:54;11.88;;;3.08;;
65581;SDS011;52231;40.090;18.348;2022-12-18T14:53:32;12.68;;;3.03;;
65581;SDS011;52231;40.090;18.348;2022-12-18T14:56:02;13.02;;;4.13;;
65581;SDS011;52231;40.090;18.348;2022-12-18T14:58:43;16.42;;;4.55;;
65581;SDS011;52231;40.090;18.348;2022-12-18T15:01:24;10.45;;;4.10;;
65581;SDS011;52231;40.090;18.348;2022-12-18T15:03:57;8.55;;;2.75;;
65581;SDS011;52231;40.090;18.348;2022-12-18T15:09:04;9.55;;;3.25;;
65581;SDS011;52231;40.090;18.348;2022-12-18T15:12:22;11.18;;;3.33;;
65581;SDS011;52231;40.090;18.348;2022-12-18T15:17:29;12.80;;;4.35;;
65581;SDS011;52231;40.090;18.348;2022-12-18T15:22:30;10.48;;;4.50;;
65581;SDS011;52231;40.090;18.348;2022-12-18T15:25:03;13.57;;;5.40;;
65581;SDS011;52231;40.090;18.348;2022-12-18T15:27:54;14.25;;;5.05;;
65581;SDS011;52231;40.090;18.348;2022-12-18T15:30:23;17.00;;;6.35;;
65581;SDS011;52231;40.090;18.348;2022-12-18T15:33:40;14.30;;;4.78;;
65581;SDS011;52231;40.090;18.348;2022-12-18T15:35:59;14.27;;;5.03;;
65581;SDS011;52231;40.090;18.348;2022-12-18T15:38:36;14.43;;;4.38;;
65581;SDS011;52231;40.090;18.348;2022-12-18T15:43:37;14.43;;;5.93;;
65581;SDS011;52231;40.090;18.348;2022-12-18T15:46:06;12.30;;;3.85;;
65581;SDS011;52231;40.090;18.348;2022-12-18T15:48:45;13.23;;;4.47;;
65581;SDS011;52231;40.090;18.348;2022-12-18T15:51:24;13.35;;;3.95;;
65581;SDS011;52231;40.090;18.348;2022-12-18T15:54:14;11.88;;;4.47;;
65581;SDS011;52231;40.090;18.348;2022-12-18T15:57:07;11.77;;;4.85;;
65581;SDS011;52231;40.090;18.348;2022-12-18T15:59:52;12.88;;;5.10;;
65581;SDS011;52231;40.090;18.348;2022-12-18T16:02:24;15.40;;;4.95;;
65581;SDS011;52231;40.090;18.348;2022-12-18T16:04:52;14.13;;;5.50;;
65581;SDS011;52231;40.090;18.348;2022-12-18T16:07:21;11.23;;;4.40;;
65581;SDS011;52231;40.090;18.348;2022-12-18T16:09:49;12.15;;;5.75;;
65581;SDS011;52231;40.090;18.348;2022-12-18T16:12:21;13.85;;;4.05;;
65581;SDS011;52231;40.090;18.348;2022-12-18T16:14:51;10.93;;;4.15;;
65581;SDS011;52231;40.090;18.348;2022-12-18T16:17:19;11.90;;;4.03;;
65581;SDS011;52231;40.090;18.348;2022-12-18T16:22:20;13.38;;;3.90;;
65581;SDS011;52231;40.090;18.348;2022-12-18T16:24:51;12.70;;;5.38;;
65581;SDS011;52231;40.090;18.348;2022-12-18T16:27:21;11.25;;;4.22;;
65581;SDS011;52231;40.090;18.348;2022-12-18T16:29:50;14.00;;;6.05;;
65581;SDS011;52231;40.090;18.348;2022-12-18T16:32:19;19.35;;;4.80;;
65581;SDS011;52231;40.090;18.348;2022-12-18T16:34:49;9.80;;;4.20;;
65581;SDS011;52231;40.090;18.348;2022-12-18T16:37:17;16.67;;;7.25;;
65581;SDS011;52231;40.090;18.348;2022-12-18T16:39:45;20.25;;;8.20;;
65581;SDS011;52231;40.090;18.348;2022-12-18T16:42:17;21.10;;;7.20;;
65581;SDS011;52231;40.090;18.348;2022-12-18T16:44:47;15.52;;;6.03;;
65581;SDS011;52231;40.090;18.348;2022-12-18T16:47:16;15.38;;;7.55;;
65581;SDS011;52231;40.090;18.348;2022-12-18T16:49:45;12.77;;;4.03;;
65581;SDS011;52231;40.090;18.348;2022-12-18T16:52:13;14.43;;;4.38;;
65581;SDS011;52231;40.090;18.348;2022-12-18T16:54:41;11.45;;;3.85;;
65581;SDS011;52231;40.090;18.348;2022-12-18T16:57:10;12.68;;;4.43;;
65581;SDS011;52231;40.090;18.348;2022-12-18T16:59:41;10.98;;;3.85;;
65581;SDS011;52231;40.090;18.348;2022-12-18T17:02:14;15.25;;;4.60;;
65581;SDS011;52231;40.090;18.348;2022-12-18T17:04:52;11.05;;;4.55;;
65581;SDS011;52231;40.090;18.348;2022-12-18T17:07:22;16.25;;;5.00;;
65581;SDS011;52231;40.090;18.348;2022-12-18T17:09:52;12.65;;;4.68;;
65581;SDS011;52231;40.090;18.348;2022-12-18T17:12:21;11.90;;;5.45;;
65581;SDS011;52231;40.090;18.348;2022-12-18T17:14:50;12.18;;;4.88;;
65581;SDS011;52231;40.090;18.348;2022-12-18T17:17:18;13.25;;;5.32;;
65581;SDS011;52231;40.090;18.348;2022-12-18T17:19:47;12.70;;;5.18;;
65581;SDS011;52231;40.090;18.348;2022-12-18T17:22:22;14.23;;;6.28;;
65581;SDS011;52231;40.090;18.348;2022-12-18T17:24:50;13.50;;;6.03;;
65581;SDS011;52231;40.090;18.348;2022-12-18T17:27:18;16.00;;;6.63;;
65581;SDS011;52231;40.090;18.348;2022-12-18T17:29:46;14.13;;;6.40;;
65581;SDS011;52231;40.090;18.348;2022-12-18T17:32:15;13.02;;;5.30;;
65581;SDS011;52231;40.090;18.348;2022-12-18T17:34:44;10.90;;;5.32;;
65581;SDS011;52231;40.090;18.348;2022-12-18T17:39:40;10.85;;;5.13;;
65581;SDS011;52231;40.090;18.348;2022-12-18T17:42:09;14.48;;;5.10;;
65581;SDS011;52231;40.090;18.348;2022-12-18T17:44:38;14.02;;;4.97;;
65581;SDS011;52231;40.090;18.348;2022-12-18T17:47:06;11.38;;;4.65;;
65581;SDS011;52231;40.090;18.348;2022-12-18T17:49:36;12.73;;;4.72;;
65581;SDS011;52231;40.090;18.348;2022-12-18T17:52:05;11.30;;;4.40;;
65581;SDS011;52231;40.090;18.348;2022-12-18T17:54:33;12.00;;;4.32;;
65581;SDS011;52231;40.090;18.348;2022-12-18T17:57:05;11.35;;;4.13;;
65581;SDS011;52231;40.090;18.348;2022-12-18T17:59:34;10.35;;;3.42;;
65581;SDS011;52231;40.090;18.348;2022-12-18T18:02:03;9.55;;;3.78;;
65581;SDS011;52231;40.090;18.348;2022-12-18T18:04:31;12.40;;;3.60;;
65581;SDS011;52231;40.090;18.348;2022-12-18T18:07:00;12.45;;;3.75;;
65581;SDS011;52231;40.090;18.348;2022-12-18T18:09:37;9.68;;;3.67;;